createdAt,value
2023-07-20T00:03:18.245Z,93.11
2023-07-20T00:05:47.577Z,93.51
2023-07-20T00:08:16.369Z,94.79
2023-07-20T00:10:44.672Z,94.12
2023-07-20T00:13:13.741Z,93.60
2023-07-20T00:15:41.907Z,92.98
2023-07-20T00:18:10.049Z,92.46
2023-07-20T00:20:38.143Z,92.16
2023-07-20T00:23:06.618Z,91.33
2023-07-20T00:25:34.910Z,92.00
2023-07-20T00:28:02.995Z,93.19
2023-07-20T00:30:31.322Z,93.64
2023-07-20T00:32:59.485Z,93.66
2023-07-20T00:35:27.657Z,93.93
2023-07-20T00:37:55.681Z,94.18
2023-07-20T00:40:23.755Z,93.78
2023-07-20T00:42:51.972Z,94.70
2023-07-20T00:45:27.214Z,95.10
2023-07-20T00:47:55.487Z,95.32
2023-07-20T00:50:24.785Z,95.69
2023-07-20T00:52:53.685Z,95.67
2023-07-20T00:55:21.807Z,95.82
2023-07-20T00:57:50.398Z,97.15
2023-07-20T01:00:19.313Z,98.01
2023-07-20T01:02:48.156Z,97.84
2023-07-20T01:05:19.166Z,99.56
2023-07-20T01:08:01.145Z,99.75
2023-07-20T01:10:47.437Z,99.65
2023-07-20T01:13:17.762Z,99.06
2023-07-20T01:15:51.984Z,99.78
2023-07-20T01:18:20.170Z,99.18
2023-07-20T01:20:48.753Z,99.42
2023-07-20T01:23:25.245Z,98.81
2023-07-20T01:26:21.197Z,98.78
2023-07-20T01:29:11.518Z,98.57
2023-07-20T01:31:42.451Z,97.91
2023-07-20T01:34:18.525Z,97.52
2023-07-20T01:36:50.013Z,96.99
2023-07-20T01:39:18.762Z,98.03
2023-07-20T01:41:47.687Z,97.23
2023-07-20T01:44:16.193Z,97.67
2023-07-20T01:46:44.440Z,98.24
2023-07-20T01:49:13.195Z,98.45
2023-07-20T01:51:41.663Z,97.90
2023-07-20T01:54:09.695Z,98.04
2023-07-20T01:56:39.045Z,97.19
2023-07-20T01:59:07.577Z,95.71
2023-07-20T02:01:36.094Z,95.29
2023-07-20T02:04:04.331Z,95.32
2023-07-20T02:06:33.013Z,95.54
2023-07-20T02:09:01.401Z,95.21
2023-07-20T02:11:29.468Z,94.94
2023-07-20T02:13:57.910Z,95.92
2023-07-20T02:16:26.357Z,96.46
2023-07-20T02:18:58.104Z,96.08
2023-07-20T02:21:26.367Z,96.35
2023-07-20T02:23:54.514Z,97.78
2023-07-20T02:26:23.018Z,98.19
2023-07-20T02:28:52.142Z,97.69
2023-07-20T02:31:20.414Z,97.70
2023-07-20T02:33:48.769Z,97.79
2023-07-20T02:36:18.204Z,98.40
2023-07-20T02:38:47.656Z,97.63
2023-07-20T02:41:15.640Z,97.57
2023-07-20T02:43:43.822Z,97.96
2023-07-20T02:46:12.760Z,98.55
2023-07-20T02:48:40.825Z,97.88
2023-07-20T02:51:09.021Z,97.07
2023-07-20T02:53:37.685Z,97.33
2023-07-20T02:56:06.077Z,97.58
2023-07-20T02:58:38.714Z,96.73
2023-07-20T03:01:06.846Z,96.74
2023-07-20T03:03:39.926Z,96.52
2023-07-20T03:06:10.840Z,94.68
2023-07-20T03:08:39.300Z,94.96
2023-07-20T03:11:08.433Z,93.97
2023-07-20T03:13:36.845Z,93.01
2023-07-20T03:16:05.504Z,93.29
2023-07-20T03:18:33.675Z,93.49
2023-07-20T03:21:01.964Z,94.15
2023-07-20T03:23:30.165Z,94.24
2023-07-20T03:25:58.966Z,93.07
2023-07-20T03:28:27.119Z,91.88
2023-07-20T03:30:56.888Z,90.75
2023-07-20T03:33:30.594Z,88.64
2023-07-20T03:35:59.888Z,86.04
2023-07-20T03:38:28.784Z,84.26
2023-07-20T03:41:01.584Z,82.07
2023-07-20T03:43:29.975Z,80.03
2023-07-20T03:45:58.784Z,76.06
2023-07-20T03:48:27.271Z,73.52
2023-07-20T03:50:55.610Z,70.94
2023-07-20T03:53:23.865Z,67.30
2023-07-20T03:55:53.684Z,64.39
2023-07-20T03:58:22.675Z,62.11
2023-07-20T04:00:52.745Z,60.25
2023-07-20T04:03:21.885Z,58.02
2023-07-20T04:05:50.079Z,57.57
2023-07-20T04:08:18.742Z,58.38
2023-07-20T04:10:46.793Z,57.65
2023-07-20T04:13:15.242Z,57.32
2023-07-20T04:15:43.873Z,57.85
2023-07-20T04:18:11.989Z,56.59
2023-07-20T04:20:40.403Z,56.01
2023-07-20T04:23:08.507Z,55.32
2023-07-20T04:25:40.589Z,53.59
2023-07-20T04:28:11.174Z,53.66
2023-07-20T04:30:41.927Z,52.69
2023-07-20T04:33:10.366Z,51.63
2023-07-20T04:35:56.089Z,51.87
2023-07-20T04:38:34.522Z,51.74
2023-07-20T04:41:16.106Z,52.00
2023-07-20T04:43:48.692Z,51.88
2023-07-20T04:46:22.797Z,52.06
2023-07-20T04:48:51.928Z,51.46
2023-07-20T04:51:22.180Z,51.10
2023-07-20T04:53:52.531Z,51.22
2023-07-20T04:56:20.881Z,50.75
2023-07-20T04:58:49.458Z,49.21
2023-07-20T05:01:17.839Z,46.72
2023-07-20T05:03:47.332Z,43.65
2023-07-20T05:06:16.364Z,42.36
2023-07-20T05:08:44.682Z,41.89
2023-07-20T05:11:13.264Z,41.92
2023-07-20T05:13:41.852Z,43.01
2023-07-20T05:16:10.181Z,44.39
2023-07-20T05:18:38.490Z,45.44
2023-07-20T05:21:07.636Z,46.36
2023-07-20T05:23:35.794Z,47.22
2023-07-20T05:26:03.931Z,48.52
2023-07-20T05:28:32.110Z,48.48
2023-07-20T05:31:00.969Z,49.06
2023-07-20T05:33:29.605Z,49.40
2023-07-20T05:35:57.675Z,48.56
2023-07-20T05:38:26.300Z,47.52
2023-07-20T05:41:01.659Z,48.02
2023-07-20T05:43:29.785Z,48.53
2023-07-20T05:45:58.017Z,48.81
2023-07-20T05:48:26.149Z,49.66
2023-07-20T05:50:54.954Z,50.32
2023-07-20T05:53:23.302Z,50.57
2023-07-20T05:55:55.896Z,51.13
2023-07-20T05:58:24.653Z,50.52
2023-07-20T06:00:52.838Z,49.55
2023-07-20T06:03:22.798Z,47.99
2023-07-20T06:05:51.183Z,46.39
2023-07-20T06:08:19.195Z,45.29
2023-07-20T06:10:51.916Z,44.15
2023-07-20T06:13:19.942Z,42.97
2023-07-20T06:15:48.658Z,41.12
2023-07-20T06:18:16.910Z,40.59
2023-07-20T06:20:51.648Z,39.82
2023-07-20T06:23:20.966Z,39.53
2023-07-20T06:25:49.588Z,39.78
2023-07-20T06:28:17.648Z,40.11
2023-07-20T06:30:45.563Z,40.27
2023-07-20T06:33:13.856Z,40.89
2023-07-20T06:35:44.618Z,41.57
2023-07-20T06:40:44.038Z,41.99
2023-07-20T06:45:43.631Z,41.00
2023-07-20T06:48:11.896Z,40.11
2023-07-20T06:50:40.009Z,39.08
2023-07-20T06:53:08.350Z,36.97
2023-07-20T06:55:41.068Z,36.92
2023-07-20T06:58:12.700Z,38.45
2023-07-20T07:00:40.816Z,38.20
2023-07-20T07:03:08.941Z,36.55
2023-07-20T07:05:38.895Z,35.01
2023-07-20T07:08:07.875Z,33.45
2023-07-20T07:10:37.549Z,32.49
2023-07-20T07:13:06.325Z,31.46
2023-07-20T07:15:35.656Z,30.59
2023-07-20T07:18:04.789Z,30.15
2023-07-20T07:20:33.134Z,30.25
2023-07-20T07:23:01.881Z,29.05
2023-07-20T07:25:31.468Z,27.94
2023-07-20T07:27:59.575Z,28.40
2023-07-20T07:30:27.629Z,28.63
2023-07-20T07:32:55.883Z,27.55
2023-07-20T07:35:24.389Z,27.14
2023-07-20T07:38:09.471Z,27.10
2023-07-20T07:40:40.905Z,26.76
2023-07-20T07:43:10.349Z,26.62
2023-07-20T07:45:38.841Z,26.52
2023-07-20T07:48:08.184Z,26.44
2023-07-20T07:50:36.553Z,27.55
2023-07-20T07:53:04.653Z,28.22
2023-07-20T07:55:33.129Z,28.10
2023-07-20T07:58:01.429Z,27.45
2023-07-20T08:00:29.836Z,27.31
2023-07-20T08:02:57.953Z,27.99
2023-07-20T08:05:27.724Z,28.05
2023-07-20T08:07:55.760Z,28.35
2023-07-20T08:10:24.456Z,28.46
2023-07-20T08:12:52.638Z,28.50
2023-07-20T08:15:20.879Z,27.93
2023-07-20T08:17:49.944Z,27.79
2023-07-20T08:20:18.724Z,27.91
2023-07-20T08:22:48.753Z,27.94
2023-07-20T08:25:17.709Z,28.69
2023-07-20T08:27:48.382Z,29.09
2023-07-20T08:30:16.636Z,28.96
2023-07-20T08:32:44.779Z,29.30
2023-07-20T08:35:15.932Z,29.21
2023-07-20T08:37:44.703Z,29.92
2023-07-20T08:40:15.212Z,29.91
2023-07-20T08:42:44.234Z,30.43
2023-07-20T08:45:17.991Z,30.46
2023-07-20T08:47:49.038Z,31.11
2023-07-20T08:50:17.937Z,31.35
2023-07-20T08:52:46.490Z,32.63
2023-07-20T08:55:14.637Z,33.17
2023-07-20T08:57:47.320Z,32.27
2023-07-20T09:00:18.348Z,32.14
2023-07-20T09:02:47.129Z,32.38
2023-07-20T09:05:15.692Z,32.33
2023-07-20T09:07:44.587Z,32.51
2023-07-20T09:10:14.602Z,34.09
2023-07-20T09:12:44.465Z,35.47
2023-07-20T09:15:13.825Z,37.50
2023-07-20T09:17:47.822Z,38.76
2023-07-20T09:20:21.389Z,40.53
2023-07-20T09:22:54.086Z,42.28
2023-07-20T09:25:24.854Z,44.28
2023-07-20T09:27:53.616Z,44.84
2023-07-20T09:30:31.650Z,45.85
2023-07-20T09:33:00.559Z,45.84
2023-07-20T09:35:38.227Z,45.70
2023-07-20T09:50:56.278Z,42.49
2023-07-20T09:53:26.703Z,44.33
2023-07-20T09:55:55.868Z,43.65
2023-07-20T09:58:24.050Z,42.84
2023-07-20T10:00:54.293Z,42.81
2023-07-20T10:03:26.034Z,41.65
2023-07-20T10:06:24.887Z,41.22
2023-07-20T10:09:01.380Z,40.70
2023-07-20T10:11:32.780Z,41.48
2023-07-20T10:14:04.420Z,42.20
2023-07-20T10:16:36.532Z,41.69
2023-07-20T10:19:17.902Z,41.30
2023-07-20T10:21:59.459Z,39.70
2023-07-20T10:24:29.313Z,38.08
2023-07-20T10:26:57.528Z,35.66
2023-07-20T10:29:30.417Z,32.93
2023-07-20T10:31:59.854Z,31.85
2023-07-20T10:34:29.351Z,31.86
2023-07-20T10:36:57.502Z,32.25
2023-07-20T10:39:28.527Z,31.80
2023-07-20T10:42:11.418Z,32.29
2023-07-20T10:44:40.885Z,33.05
2023-07-20T10:47:14.116Z,33.03
2023-07-20T10:50:03.571Z,33.93
2023-07-20T10:52:39.042Z,34.92
2023-07-20T10:55:17.929Z,35.47
2023-07-20T10:58:11.019Z,36.32
2023-07-20T11:00:58.196Z,36.57
2023-07-20T11:03:33.603Z,37.42
2023-07-20T11:06:26.326Z,37.71
2023-07-20T11:09:17.282Z,38.03
2023-07-20T11:11:48.628Z,39.25
2023-07-20T11:14:27.588Z,38.69
2023-07-20T11:16:56.914Z,37.78
2023-07-20T11:24:30.260Z,34.74
2023-07-20T11:26:58.801Z,33.94
2023-07-20T11:32:02.293Z,34.23
2023-07-20T11:34:33.056Z,33.96
2023-07-20T11:39:33.078Z,33.87
2023-07-20T11:42:01.208Z,34.34
2023-07-20T11:44:31.238Z,34.94
2023-07-20T11:47:13.279Z,35.22
2023-07-20T11:49:46.796Z,35.71
2023-07-20T11:52:17.782Z,36.91
2023-07-20T11:54:49.808Z,36.68
2023-07-20T11:57:22.088Z,36.44
2023-07-20T11:59:58.721Z,35.80
2023-07-20T12:02:30.821Z,34.72
2023-07-20T12:04:59.452Z,34.93
2023-07-20T12:07:29.979Z,34.92
2023-07-20T12:10:08.281Z,35.19
2023-07-20T12:12:39.172Z,35.22
2023-07-20T12:15:33.419Z,35.57
2023-07-20T12:18:03.319Z,35.49
2023-07-20T12:20:36.212Z,35.65
2023-07-20T12:23:06.486Z,35.15
2023-07-20T12:25:35.483Z,34.82
2023-07-20T12:28:06.779Z,33.95
2023-07-20T12:30:34.862Z,33.62
2023-07-20T12:33:04.102Z,34.11
2023-07-20T12:35:33.627Z,33.92
2023-07-20T12:38:02.173Z,34.37
2023-07-20T12:40:30.948Z,33.68
2023-07-20T12:42:59.776Z,32.28
2023-07-20T12:45:28.411Z,32.83
2023-07-20T12:47:56.536Z,33.34
2023-07-20T12:50:24.760Z,33.13
2023-07-20T12:52:53.197Z,32.03
2023-07-20T12:55:21.794Z,31.90
2023-07-20T12:57:49.876Z,31.05
2023-07-20T13:00:18.514Z,29.90
2023-07-20T13:02:46.583Z,29.77
2023-07-20T13:05:15.000Z,29.90
2023-07-20T13:10:14.714Z,31.67
2023-07-20T13:12:43.153Z,31.66
2023-07-20T13:15:12.252Z,32.13
2023-07-20T13:17:40.985Z,32.00
2023-07-20T13:20:11.813Z,32.00
2023-07-20T13:22:40.100Z,32.31
2023-07-20T13:25:09.132Z,32.18
2023-07-20T13:27:38.970Z,32.36
2023-07-20T13:30:11.133Z,32.40
2023-07-20T13:32:41.497Z,32.04
2023-07-20T13:35:13.516Z,32.34
2023-07-20T13:37:42.640Z,32.56
2023-07-20T13:40:14.679Z,32.81
2023-07-20T13:42:43.225Z,31.90
2023-07-20T13:45:11.413Z,31.15
2023-07-20T13:47:39.970Z,30.94
2023-07-20T13:50:08.817Z,31.03
2023-07-20T13:55:09.868Z,32.24
2023-07-20T13:57:38.065Z,32.75
2023-07-20T14:00:06.914Z,33.32
2023-07-20T14:07:44.740Z,33.38
2023-07-20T14:12:44.342Z,32.97
2023-07-20T14:15:12.501Z,31.99
2023-07-20T14:17:40.655Z,32.03
2023-07-20T14:22:42.922Z,31.42
2023-07-20T14:25:11.188Z,30.70
2023-07-20T14:27:39.107Z,30.14
2023-07-20T14:30:09.413Z,31.07
2023-07-20T14:32:37.593Z,30.62
2023-07-20T14:37:35.759Z,31.52
2023-07-20T14:42:34.431Z,32.89
2023-07-20T14:45:04.028Z,33.90
2023-07-20T14:47:36.680Z,35.15
2023-07-20T14:50:07.174Z,35.73
2023-07-20T14:52:35.338Z,35.59
2023-07-20T14:55:03.842Z,34.96
2023-07-20T14:57:32.100Z,33.28
2023-07-20T15:00:00.378Z,32.38
2023-07-20T15:02:28.589Z,32.55
2023-07-20T15:04:58.261Z,32.89
2023-07-20T15:07:26.666Z,33.56
2023-07-20T15:09:54.762Z,33.38
2023-07-20T15:12:23.035Z,33.50
2023-07-20T15:15:05.647Z,32.63
2023-07-20T15:17:34.850Z,32.17
2023-07-20T15:20:07.421Z,32.29
2023-07-20T15:22:36.925Z,32.25
2023-07-20T15:25:06.817Z,32.25
2023-07-20T15:27:35.915Z,32.09
2023-07-20T15:30:04.856Z,32.54
2023-07-20T15:33:10.220Z,32.77
2023-07-20T15:35:21.004Z,32.68
2023-07-20T15:37:49.392Z,32.76
2023-07-20T15:40:17.633Z,33.25
2023-07-20T15:42:53.478Z,32.97
2023-07-20T15:45:23.240Z,33.17
2023-07-20T15:47:51.322Z,32.93
2023-07-20T15:50:22.587Z,32.97
2023-07-20T15:52:51.466Z,33.08
2023-07-20T15:55:19.973Z,33.34
2023-07-20T15:57:48.143Z,33.64
2023-07-20T16:00:17.341Z,33.74
2023-07-20T16:02:47.247Z,33.78
2023-07-20T16:05:15.683Z,33.88
2023-07-20T16:07:46.626Z,33.93
2023-07-20T16:10:14.844Z,34.09
2023-07-20T16:12:43.249Z,34.34
2023-07-20T16:15:12.175Z,34.25
2023-07-20T16:17:40.391Z,34.21
2023-07-20T16:20:09.133Z,34.38
2023-07-20T16:22:37.428Z,34.86
2023-07-20T16:25:06.452Z,37.78
2023-07-20T16:27:35.022Z,40.98
2023-07-20T16:30:03.548Z,43.55
2023-07-20T16:32:31.535Z,46.35
2023-07-20T16:37:35.748Z,52.17
2023-07-20T16:45:15.297Z,57.49
2023-07-20T16:47:43.818Z,58.54
2023-07-20T16:50:12.466Z,62.04
2023-07-20T16:52:40.654Z,65.89
2023-07-20T16:55:09.468Z,67.83
2023-07-20T16:57:37.518Z,70.98
2023-07-20T17:00:11.460Z,73.00
2023-07-20T17:02:39.886Z,73.08
2023-07-20T17:05:10.839Z,73.46
2023-07-20T17:07:42.740Z,74.99
2023-07-20T17:10:11.772Z,75.93
2023-07-20T17:12:41.529Z,79.47
2023-07-20T17:15:10.657Z,80.37
2023-07-20T17:17:38.689Z,81.13
2023-07-20T17:22:39.990Z,79.57
2023-07-20T17:30:12.656Z,79.96
2023-07-20T17:32:40.805Z,79.22
2023-07-20T17:35:14.437Z,78.50
2023-07-20T17:45:19.664Z,76.10
2023-07-20T17:47:48.004Z,77.53
2023-07-20T17:50:17.385Z,77.15
2023-07-20T17:52:45.606Z,76.30
2023-07-20T17:55:13.859Z,75.55
2023-07-20T17:57:41.959Z,75.19
2023-07-20T18:02:44.732Z,73.88
2023-07-20T18:05:15.102Z,73.35
2023-07-20T18:07:43.208Z,73.79
2023-07-20T18:10:11.404Z,74.12
2023-07-20T18:12:39.560Z,74.50
2023-07-20T18:15:09.197Z,74.53
2023-07-20T18:17:39.183Z,75.19
2023-07-20T18:20:08.257Z,75.71
2023-07-20T18:22:37.235Z,75.50
2023-07-20T18:25:06.183Z,76.09
2023-07-20T18:27:34.678Z,76.46
2023-07-20T18:30:03.030Z,77.13
2023-07-20T18:32:31.520Z,77.41
2023-07-20T18:35:01.149Z,77.35
2023-07-20T18:37:29.627Z,77.28
2023-07-20T18:39:57.956Z,77.21
2023-07-20T18:42:25.979Z,77.75
2023-07-20T18:44:53.989Z,77.97
2023-07-20T18:47:22.522Z,78.55
2023-07-20T18:49:50.814Z,78.68
2023-07-20T18:52:19.118Z,77.54
2023-07-20T18:54:47.414Z,78.59
2023-07-20T18:57:15.905Z,79.02
2023-07-20T18:59:44.392Z,77.92
2023-07-20T19:02:12.459Z,77.46
2023-07-20T19:04:40.638Z,77.87
2023-07-20T19:07:08.789Z,77.68
2023-07-20T19:09:36.875Z,77.64
2023-07-20T19:12:05.804Z,77.98
2023-07-20T19:14:34.025Z,79.34
2023-07-20T19:17:02.173Z,80.37
2023-07-20T19:19:32.436Z,80.43
2023-07-20T19:22:00.693Z,79.70
2023-07-20T19:24:29.377Z,79.80
2023-07-20T19:26:57.663Z,78.77
2023-07-20T19:29:25.987Z,79.76
2023-07-20T19:31:54.557Z,79.64
2023-07-20T19:34:23.267Z,79.19
2023-07-20T19:36:51.306Z,78.93
2023-07-20T19:39:19.716Z,80.79
2023-07-20T19:41:48.185Z,79.89
2023-07-20T19:44:17.741Z,79.80
2023-07-20T19:46:46.680Z,79.62
2023-07-20T19:49:15.074Z,79.80
2023-07-20T19:51:43.072Z,81.07
2023-07-20T19:56:42.361Z,80.65
2023-07-20T19:59:11.523Z,80.71
2023-07-20T20:06:43.426Z,81.32
2023-07-20T20:09:11.666Z,80.64
2023-07-20T20:11:39.842Z,80.34
2023-07-20T20:14:08.365Z,80.54
2023-07-20T20:16:38.263Z,80.53
2023-07-20T20:19:07.470Z,80.07
2023-07-20T20:21:36.519Z,80.15
2023-07-20T20:24:05.334Z,80.05
2023-07-20T20:26:33.647Z,79.76
2023-07-20T20:29:02.525Z,79.57
2023-07-20T20:31:30.590Z,78.82
2023-07-20T20:33:59.696Z,79.29
2023-07-20T20:36:29.027Z,79.78
2023-07-20T20:38:57.792Z,80.25
2023-07-20T20:41:31.110Z,79.74
2023-07-20T20:43:59.389Z,80.10
2023-07-20T20:46:28.180Z,79.30
2023-07-20T20:48:56.504Z,79.64
2023-07-20T20:51:24.721Z,80.43
2023-07-20T20:53:52.761Z,80.93
2023-07-20T20:56:20.964Z,80.95
2023-07-20T20:58:50.074Z,80.91
2023-07-20T21:01:18.355Z,80.36
2023-07-20T21:03:46.501Z,79.88
2023-07-20T21:06:14.657Z,79.49
2023-07-20T21:08:42.646Z,79.43
2023-07-20T21:11:11.013Z,79.67
2023-07-20T21:13:39.840Z,79.45
2023-07-20T21:16:07.951Z,78.77
2023-07-20T21:18:36.239Z,78.42
2023-07-20T21:21:05.363Z,78.21
2023-07-20T21:23:33.263Z,78.07
2023-07-20T21:26:01.299Z,78.03
2023-07-20T21:28:29.305Z,78.10
2023-07-20T21:31:08.786Z,77.99
2023-07-20T21:33:36.936Z,78.22
2023-07-20T21:36:06.524Z,77.97
2023-07-20T21:38:38.624Z,77.80
2023-07-20T21:41:08.206Z,78.10
2023-07-20T21:43:36.576Z,78.21
2023-07-20T21:46:04.994Z,77.87
2023-07-20T21:48:33.147Z,77.74
2023-07-20T21:51:01.234Z,77.79
2023-07-20T21:53:30.333Z,77.61
2023-07-20T21:55:58.639Z,77.58
2023-07-20T21:58:26.963Z,77.53
2023-07-20T22:00:57.097Z,76.92
2023-07-20T22:03:25.568Z,77.19
2023-07-20T22:05:57.053Z,77.50
2023-07-20T22:08:26.180Z,76.91
2023-07-20T22:10:54.732Z,77.09
2023-07-20T22:13:23.233Z,77.38
2023-07-20T22:15:51.827Z,77.40
2023-07-20T22:18:34.590Z,77.31
2023-07-20T22:21:07.382Z,76.73
2023-07-20T22:23:36.179Z,76.80
2023-07-20T22:26:04.703Z,76.68
2023-07-20T22:28:33.113Z,76.34
2023-07-20T22:31:01.998Z,76.46
2023-07-20T22:33:30.301Z,77.01
2023-07-20T22:35:58.309Z,77.26
2023-07-20T22:38:26.606Z,77.23
2023-07-20T22:40:54.922Z,77.72
2023-07-20T22:43:26.775Z,78.00
2023-07-20T22:45:56.548Z,77.81
2023-07-20T22:48:27.187Z,78.29
2023-07-20T22:50:59.900Z,78.35
2023-07-20T22:53:30.830Z,77.98
2023-07-20T22:55:59.339Z,78.98
2023-07-20T22:58:27.479Z,78.75
2023-07-20T23:00:55.976Z,78.54
2023-07-20T23:03:24.860Z,78.61
2023-07-20T23:05:53.222Z,78.51
2023-07-20T23:08:21.265Z,78.32
2023-07-20T23:10:49.491Z,78.76
2023-07-20T23:13:17.748Z,78.49
2023-07-20T23:15:45.923Z,78.60
2023-07-20T23:18:14.199Z,79.20
2023-07-20T23:20:42.241Z,80.14
2023-07-20T23:23:10.253Z,80.95
2023-07-20T23:25:38.300Z,81.25
2023-07-20T23:28:06.566Z,81.50
2023-07-20T23:30:34.588Z,81.90
2023-07-20T23:33:02.736Z,81.18
2023-07-20T23:35:33.247Z,81.15
2023-07-20T23:38:02.276Z,81.48
2023-07-20T23:40:30.602Z,81.61
2023-07-20T23:42:58.881Z,81.98
2023-07-20T23:45:27.021Z,81.20
2023-07-20T23:47:55.385Z,80.44
2023-07-20T23:50:23.437Z,80.37
2023-07-20T23:52:52.821Z,81.09
2023-07-20T23:55:21.529Z,80.64
2023-07-20T23:57:49.706Z,80.50
